Time;durP1;ratioP1;P1;durP2;ratioP2;P2;SDS_P1;SDS_P2;PMS_P1;PMS_P2;Temp;Humidity;BMP_temperature;BMP_pressure;BME280_temperature;BME280_humidity;BME280_pressure;Samples;Min_cycle;Max_cycle;Signal;HPM_P1;HPM_P2
2022/04/08 00:01:03;;;;;;;8.60;2.05;;;7.00;99.90;;;;;;5055567;28;20032;-58
2022/04/08 00:03:29;;;;;;;6.68;1.90;;;7.00;99.90;;;;;;5055253;28;20021;-58
2022/04/08 00:05:55;;;;;;;11.05;2.30;;;7.00;99.90;;;;;;5055117;28;20462;-58
2022/04/08 00:08:21;;;;;;;5.97;2.30;;;7.00;99.90;;;;;;5054696;28;20032;-58
2022/04/08 00:10:47;;;;;;;10.85;2.80;;;7.00;99.90;;;;;;5046537;28;20052;-58
2022/04/08 00:13:14;;;;;;;8.25;2.28;;;6.90;99.90;;;;;;5035529;28;20053;-58
2022/04/08 00:15:40;;;;;;;8.52;2.58;;;6.90;99.90;;;;;;5049169;28;20021;-58
2022/04/08 00:18:07;;;;;;;11.48;2.90;;;6.90;99.90;;;;;;5055389;28;20433;-57
2022/04/08 00:20:33;;;;;;;9.00;2.78;;;6.90;99.90;;;;;;5055241;28;20427;-57
2022/04/08 00:23:01;;;;;;;11.18;3.22;;;6.90;99.90;;;;;;5045640;28;20074;-57
2022/04/08 00:25:27;;;;;;;10.68;2.88;;;7.00;99.90;;;;;;5035147;28;20040;-57
2022/04/08 00:27:53;;;;;;;6.45;2.83;;;7.00;99.90;;;;;;5035841;28;20466;-57
2022/04/08 00:30:18;;;;;;;4.95;2.10;;;7.10;99.90;;;;;;5035303;28;20033;-57
2022/04/08 00:32:44;;;;;;;13.25;2.35;;;7.10;99.90;;;;;;5034903;28;20021;-57
2022/04/08 00:35:10;;;;;;;8.55;2.47;;;7.10;99.90;;;;;;5033471;28;20025;-57
2022/04/08 00:37:36;;;;;;;8.70;2.30;;;7.00;99.90;;;;;;5035394;28;20367;-58
2022/04/08 00:40:03;;;;;;;7.30;2.47;;;7.00;99.90;;;;;;5033698;28;20048;-57
2022/04/08 00:42:31;;;;;;;6.50;2.33;;;7.00;99.90;;;;;;5035107;28;20497;-57
2022/04/08 00:44:58;;;;;;;8.25;2.75;;;7.00;99.90;;;;;;5034520;28;20053;-57
2022/04/08 00:47:23;;;;;;;7.78;2.67;;;7.00;99.90;;;;;;5035070;28;20029;-57
2022/04/08 00:49:50;;;;;;;7.55;2.65;;;6.90;99.90;;;;;;5033636;28;20040;-57
2022/04/08 00:52:16;;;;;;;9.63;2.70;;;6.90;99.90;;;;;;5035052;28;20029;-57
2022/04/08 00:54:43;;;;;;;5.38;2.40;;;6.90;99.90;;;;;;5035084;28;20056;-58
2022/04/08 00:57:09;;;;;;;7.82;2.60;;;6.80;99.90;;;;;;5034795;28;20109;-57
2022/04/08 00:59:35;;;;;;;9.20;2.63;;;6.80;99.90;;;;;;5034246;28;20056;-57
2022/04/08 01:02:01;;;;;;;8.23;2.47;;;6.80;99.90;;;;;;5034428;28;20022;-57
2022/04/08 01:04:27;;;;;;;6.28;2.75;;;6.80;99.90;;;;;;5034792;28;20033;-57
2022/04/08 01:06:54;;;;;;;6.32;2.70;;;6.80;99.90;;;;;;5035346;28;20032;-57
2022/04/08 01:09:21;;;;;;;5.25;2.88;;;6.80;99.90;;;;;;5034891;28;20029;-57
2022/04/08 01:11:47;;;;;;;6.38;2.92;;;6.90;99.90;;;;;;5034217;28;20018;-57
2022/04/08 01:14:15;;;;;;;7.10;2.80;;;6.80;99.90;;;;;;5035381;28;20040;-57
2022/04/08 01:16:41;;;;;;;6.57;2.55;;;6.90;99.90;;;;;;5034790;28;20017;-57
2022/04/08 01:19:07;;;;;;;6.55;2.60;;;6.90;99.90;;;;;;5032517;28;20028;-57
2022/04/08 01:21:33;;;;;;;4.15;2.30;;;6.90;99.90;;;;;;5033484;28;20120;-57
2022/04/08 01:24:00;;;;;;;11.23;2.55;;;6.90;99.90;;;;;;5033645;28;20021;-57
2022/04/08 01:26:26;;;;;;;7.03;2.80;;;6.90;99.90;;;;;;5033468;28;20463;-57
2022/04/08 01:28:52;;;;;;;7.63;2.75;;;6.90;99.90;;;;;;5034558;28;20026;-57
2022/04/08 01:31:18;;;;;;;5.80;2.47;;;6.90;99.90;;;;;;5034632;28;20026;-57
2022/04/08 01:33:44;;;;;;;8.48;2.65;;;6.90;99.90;;;;;;5034592;28;20030;-57
2022/04/08 01:36:10;;;;;;;6.95;2.95;;;6.90;99.90;;;;;;5032534;28;20053;-57
2022/04/08 01:38:36;;;;;;;7.22;2.67;;;7.00;99.90;;;;;;5034126;28;20026;-57
2022/04/08 01:41:01;;;;;;;10.75;2.72;;;6.90;99.90;;;;;;5033554;28;20021;-57
2022/04/08 01:43:27;;;;;;;6.93;3.28;;;6.90;99.90;;;;;;5033795;28;20036;-57
2022/04/08 01:45:53;;;;;;;7.80;3.10;;;6.90;99.90;;;;;;5033859;28;20104;-57
2022/04/08 01:48:19;;;;;;;8.23;3.17;;;6.90;99.90;;;;;;5034143;28;20394;-57
2022/04/08 01:50:45;;;;;;;11.13;2.95;;;6.80;99.90;;;;;;5033988;28;20467;-57
2022/04/08 01:53:11;;;;;;;8.38;3.78;;;6.80;99.90;;;;;;5032410;28;20116;-57
2022/04/08 01:55:36;;;;;;;12.18;3.53;;;6.80;99.90;;;;;;5033753;28;20080;-57
2022/04/08 01:58:02;;;;;;;5.72;2.88;;;6.70;99.90;;;;;;5033317;28;20218;-57
2022/04/08 02:00:30;;;;;;;9.82;3.60;;;6.70;99.90;;;;;;5032959;28;20025;-57
2022/04/08 02:02:55;;;;;;;9.85;3.10;;;6.70;99.90;;;;;;5031310;28;20032;-57
2022/04/08 02:05:21;;;;;;;4.88;2.55;;;6.70;99.90;;;;;;5032889;28;20289;-58
2022/04/08 02:07:46;;;;;;;8.00;3.30;;;6.60;99.90;;;;;;5033022;28;20105;-57
2022/04/08 02:10:12;;;;;;;11.05;3.22;;;6.60;99.90;;;;;;5033097;28;20033;-57
2022/04/08 02:12:38;;;;;;;8.45;3.35;;;6.50;99.90;;;;;;5031977;28;20136;-57
2022/04/08 02:15:04;;;;;;;8.23;3.42;;;6.50;99.90;;;;;;5031314;28;20030;-57
2022/04/08 02:17:30;;;;;;;9.23;3.58;;;6.40;99.90;;;;;;5031359;28;20025;-57
2022/04/08 02:19:56;;;;;;;8.20;3.38;;;6.40;99.90;;;;;;5032315;28;20037;-57
2022/04/08 02:22:26;;;;;;;10.95;3.67;;;6.30;99.90;;;;;;5032627;28;20045;-57
2022/04/08 02:24:52;;;;;;;13.30;3.60;;;6.20;99.90;;;;;;5032942;28;20036;-57
2022/04/08 02:27:18;;;;;;;9.48;3.60;;;6.20;99.90;;;;;;5032900;28;20029;-57
2022/04/08 02:29:44;;;;;;;9.00;3.60;;;6.10;99.90;;;;;;5031626;28;20029;-57
2022/04/08 02:32:10;;;;;;;15.40;4.40;;;6.00;99.90;;;;;;5031922;28;20226;-58
2022/04/08 02:34:38;;;;;;;12.15;3.70;;;6.00;99.90;;;;;;5031456;28;20471;-57
2022/04/08 02:37:05;;;;;;;10.82;4.20;;;6.00;99.90;;;;;;5030697;28;20386;-57
2022/04/08 02:39:31;;;;;;;9.73;4.15;;;6.10;99.90;;;;;;5032030;28;20048;-57
2022/04/08 02:41:57;;;;;;;7.00;3.70;;;6.00;99.90;;;;;;5031625;28;20490;-57
2022/04/08 02:44:23;;;;;;;11.43;3.88;;;5.90;99.90;;;;;;5032352;28;20052;-57
2022/04/08 02:46:48;;;;;;;10.15;3.80;;;5.80;99.90;;;;;;5030264;28;20022;-57
2022/04/08 02:49:14;;;;;;;13.90;4.05;;;5.80;99.90;;;;;;5031243;28;20497;-57
2022/04/08 02:51:39;;;;;;;11.88;3.85;;;5.80;99.90;;;;;;5030764;28;20064;-57
2022/04/08 02:54:05;;;;;;;11.70;3.90;;;5.90;99.90;;;;;;5031974;28;20029;-57
2022/04/08 02:56:31;;;;;;;11.38;4.30;;;5.90;99.90;;;;;;5031408;28;20030;-57
2022/04/08 02:58:57;;;;;;;6.60;3.13;;;5.90;99.90;;;;;;5031981;28;20371;-57
2022/04/08 03:01:24;;;;;;;12.60;3.85;;;5.80;99.90;;;;;;5031889;28;20022;-57
2022/04/08 03:03:49;;;;;;;12.68;4.22;;;5.80;99.90;;;;;;5031299;28;20022;-57
2022/04/08 03:06:15;;;;;;;11.38;3.85;;;5.70;99.90;;;;;;5032705;28;20032;-57
2022/04/08 03:08:40;;;;;;;14.57;4.15;;;5.70;99.90;;;;;;5032297;28;20021;-57
2022/04/08 03:11:06;;;;;;;9.20;4.22;;;5.80;99.90;;;;;;5014361;28;20026;-58
2022/04/08 03:13:32;;;;;;;12.82;4.00;;;5.80;99.90;;;;;;5047529;28;20427;-58
2022/04/08 03:15:58;;;;;;;11.18;4.10;;;5.80;99.90;;;;;;5032092;28;20490;-57
2022/04/08 03:18:23;;;;;;;8.05;4.57;;;5.80;99.90;;;;;;5032355;28;20029;-57
2022/04/08 03:20:49;;;;;;;9.68;4.03;;;5.80;99.90;;;;;;5031573;28;20059;-57
2022/04/08 03:23:15;;;;;;;9.73;4.30;;;5.70;99.90;;;;;;5032383;28;20052;-57
2022/04/08 03:25:41;;;;;;;8.65;3.72;;;5.70;99.90;;;;;;5032876;28;20017;-57
2022/04/08 03:28:09;;;;;;;13.13;3.92;;;5.80;99.90;;;;;;5032734;28;20045;-57
2022/04/08 03:30:35;;;;;;;13.57;4.35;;;5.70;99.90;;;;;;5036792;28;20391;-57
2022/04/08 03:33:00;;;;;;;9.93;3.20;;;5.80;99.90;;;;;;5037076;28;20085;-57
2022/04/08 03:35:26;;;;;;;8.93;3.55;;;5.80;99.90;;;;;;5036567;28;20084;-57
2022/04/08 03:37:52;;;;;;;7.53;3.47;;;5.80;99.90;;;;;;5035176;28;20128;-57
2022/04/08 03:40:18;;;;;;;10.02;3.88;;;5.80;99.90;;;;;;5034910;28;20022;-57
2022/04/08 03:42:43;;;;;;;12.13;3.92;;;5.80;99.90;;;;;;5036124;28;20075;-57
2022/04/08 03:45:09;;;;;;;10.35;3.63;;;5.80;99.90;;;;;;5035835;28;20506;-57
2022/04/08 03:47:35;;;;;;;8.95;3.50;;;5.80;99.90;;;;;;5036431;28;20025;-57
2022/04/08 03:50:01;;;;;;;10.20;4.22;;;5.80;99.90;;;;;;5036368;28;20025;-57
2022/04/08 03:52:32;;;;;;;8.50;3.78;;;5.80;99.90;;;;;;5036054;28;20021;-58
2022/04/08 03:54:59;;;;;;;10.20;4.03;;;5.70;99.90;;;;;;5035809;28;20026;-58
2022/04/08 03:57:26;;;;;;;10.27;4.15;;;5.70;99.90;;;;;;5035945;28;20067;-58
2022/04/08 03:59:51;;;;;;;7.05;3.42;;;5.70;99.90;;;;;;5036298;28;20033;-58
2022/04/08 04:02:17;;;;;;;12.80;3.97;;;5.70;99.90;;;;;;5036345;28;20058;-58
2022/04/08 04:04:43;;;;;;;5.00;3.15;;;5.70;99.90;;;;;;5035658;28;20071;-58
2022/04/08 04:07:08;;;;;;;9.57;3.65;;;5.70;99.90;;;;;;5036469;28;20360;-57
2022/04/08 04:09:34;;;;;;;10.63;3.45;;;5.70;99.90;;;;;;5036127;28;20040;-57
2022/04/08 04:12:00;;;;;;;8.23;3.38;;;5.60;99.90;;;;;;5036340;28;20025;-57
2022/04/08 04:14:25;;;;;;;12.98;3.83;;;5.60;99.90;;;;;;5036357;28;20028;-57
2022/04/08 04:16:51;;;;;;;10.52;3.60;;;5.60;99.90;;;;;;5036057;28;20029;-57
2022/04/08 04:19:17;;;;;;;10.15;3.13;;;5.60;99.90;;;;;;5035215;28;20111;-57
2022/04/08 04:21:43;;;;;;;9.35;3.42;;;5.50;99.90;;;;;;5035057;28;20049;-57
2022/04/08 04:24:09;;;;;;;7.50;3.20;;;5.50;99.90;;;;;;5035081;28;20367;-57
2022/04/08 04:26:34;;;;;;;6.55;3.00;;;5.50;99.90;;;;;;5034741;28;20061;-57
2022/04/08 04:29:00;;;;;;;8.57;3.72;;;5.40;99.90;;;;;;5035202;28;20036;-57
2022/04/08 04:31:26;;;;;;;10.70;3.20;;;5.40;99.90;;;;;;5034425;28;20021;-57
2022/04/08 04:33:51;;;;;;;10.45;2.90;;;5.40;99.90;;;;;;5035935;28;20053;-57
2022/04/08 04:36:17;;;;;;;10.82;3.03;;;5.40;99.90;;;;;;5035668;28;20048;-57
2022/04/08 04:38:43;;;;;;;6.32;2.65;;;5.40;99.90;;;;;;5035206;28;20071;-57
2022/04/08 04:41:09;;;;;;;11.32;2.80;;;5.30;99.90;;;;;;5034721;28;20625;-57
2022/04/08 04:43:35;;;;;;;8.70;3.13;;;5.30;99.90;;;;;;5035026;28;20080;-57
2022/04/08 04:46:03;;;;;;;9.35;2.75;;;5.30;99.90;;;;;;5034700;28;20025;-57
2022/04/08 04:48:29;;;;;;;8.50;2.80;;;5.30;99.90;;;;;;5034942;28;20357;-58
2022/04/08 04:50:56;;;;;;;11.02;3.10;;;5.40;99.90;;;;;;5034532;28;20037;-57
2022/04/08 04:53:22;;;;;;;9.50;2.97;;;5.40;99.90;;;;;;5032687;28;20036;-57
2022/04/08 04:55:48;;;;;;;8.88;3.22;;;5.40;99.90;;;;;;5034416;28;20026;-57
2022/04/08 04:58:14;;;;;;;10.35;3.28;;;5.40;99.90;;;;;;5034466;28;20025;-57
2022/04/08 05:00:40;;;;;;;10.73;3.25;;;5.40;99.90;;;;;;5034530;28;20021;-57
2022/04/08 05:03:06;;;;;;;5.18;2.80;;;5.40;99.90;;;;;;5034724;28;20064;-58
2022/04/08 05:05:32;;;;;;;11.50;3.25;;;5.30;99.90;;;;;;5033636;28;20029;-57
2022/04/08 05:08:01;;;;;;;9.07;3.10;;;5.30;99.90;;;;;;5034738;28;20038;-57
2022/04/08 05:10:27;;;;;;;8.65;2.70;;;5.30;99.90;;;;;;5034911;28;20017;-57
2022/04/08 05:12:53;;;;;;;6.70;2.45;;;5.30;99.90;;;;;;5034861;28;20044;-57
2022/04/08 05:15:18;;;;;;;8.90;3.30;;;5.10;99.90;;;;;;5034124;28;20017;-57
2022/04/08 05:17:45;;;;;;;10.40;3.72;;;5.00;99.90;;;;;;5034445;28;20487;-57
2022/04/08 05:20:10;;;;;;;10.15;3.78;;;5.00;99.90;;;;;;5035019;28;20021;-57
2022/04/08 05:22:38;;;;;;;7.07;3.08;;;5.00;99.90;;;;;;5049708;28;20426;-57
2022/04/08 05:25:04;;;;;;;10.35;3.33;;;5.10;99.90;;;;;;5034287;28;20037;-57
2022/04/08 05:27:42;;;;;;;9.95;3.22;;;5.20;99.90;;;;;;5033032;28;20064;-57
2022/04/08 05:30:13;;;;;;;10.38;4.03;;;5.20;99.90;;;;;;5034125;28;20084;-57
2022/04/08 05:32:42;;;;;;;7.13;2.92;;;5.20;99.90;;;;;;5033807;28;20018;-57
2022/04/08 05:35:09;;;;;;;9.82;3.65;;;5.30;99.90;;;;;;5033231;28;20037;-58
2022/04/08 05:37:39;;;;;;;8.35;3.28;;;5.40;99.90;;;;;;5033549;28;20144;-58
2022/04/08 05:40:05;;;;;;;5.97;3.17;;;5.40;99.90;;;;;;5033487;28;20025;-57
2022/04/08 05:42:31;;;;;;;7.93;2.95;;;5.40;99.90;;;;;;5033832;28;20048;-57
2022/04/08 05:44:57;;;;;;;8.02;3.05;;;5.50;99.90;;;;;;5031757;28;20581;-57
2022/04/08 05:47:27;;;;;;;12.63;3.05;;;5.50;99.90;;;;;;5032271;28;20036;-58
2022/04/08 05:49:53;;;;;;;7.13;3.03;;;5.50;99.90;;;;;;5032358;28;20546;-57
2022/04/08 05:52:18;;;;;;;9.10;3.28;;;5.60;99.90;;;;;;5031676;28;20105;-57
2022/04/08 05:54:44;;;;;;;10.77;2.78;;;5.70;99.90;;;;;;5032285;28;20083;-57
2022/04/08 05:57:09;;;;;;;9.88;3.33;;;5.70;99.90;;;;;;5033248;28;20036;-58
2022/04/08 05:59:37;;;;;;;8.82;3.00;;;5.80;99.90;;;;;;5033420;28;20021;-57
2022/04/08 06:02:05;;;;;;;9.27;2.95;;;5.80;99.90;;;;;;5032111;28;20116;-57
2022/04/08 06:04:31;;;;;;;8.25;2.72;;;5.90;99.90;;;;;;5032916;28;20163;-57
2022/04/08 06:06:56;;;;;;;9.10;3.30;;;5.90;99.90;;;;;;5033143;28;20056;-57
2022/04/08 06:09:22;;;;;;;8.32;3.28;;;5.90;99.90;;;;;;5033166;28;20234;-57
2022/04/08 06:11:48;;;;;;;4.63;3.00;;;5.90;99.90;;;;;;5033365;28;20025;-57
2022/04/08 06:14:14;;;;;;;6.85;3.40;;;6.00;99.90;;;;;;5033195;28;20013;-57
2022/04/08 06:16:39;;;;;;;12.60;3.78;;;6.10;99.90;;;;;;5032797;28;20036;-57
2022/04/08 06:19:05;;;;;;;13.63;3.75;;;6.00;99.90;;;;;;5032864;28;20022;-57
2022/04/08 06:21:31;;;;;;;9.68;3.72;;;6.10;99.90;;;;;;5032786;28;20055;-57
2022/04/08 06:23:56;;;;;;;6.82;3.22;;;6.00;99.90;;;;;;5034028;28;20466;-58
2022/04/08 06:26:22;;;;;;;8.65;3.00;;;6.00;99.90;;;;;;5037168;28;20048;-58
2022/04/08 06:28:47;;;;;;;4.63;2.47;;;6.00;99.90;;;;;;5035100;28;20074;-57
2022/04/08 06:31:13;;;;;;;8.68;2.75;;;6.00;99.90;;;;;;5033551;28;20018;-57
2022/04/08 06:33:39;;;;;;;7.72;2.83;;;6.00;99.90;;;;;;5031749;28;20029;-57
2022/04/08 06:36:04;;;;;;;11.13;3.47;;;6.10;99.90;;;;;;5032674;28;20026;-57
2022/04/08 06:38:30;;;;;;;11.93;3.05;;;6.20;99.90;;;;;;5033361;28;20053;-57
2022/04/08 06:40:56;;;;;;;11.77;3.83;;;6.30;99.90;;;;;;5033529;28;20025;-57
2022/04/08 06:43:21;;;;;;;10.70;3.47;;;6.40;99.90;;;;;;5034308;28;20075;-57
2022/04/08 06:45:47;;;;;;;5.35;2.97;;;6.50;99.90;;;;;;5031322;28;20033;-57
2022/04/08 06:48:13;;;;;;;7.60;2.85;;;6.50;99.90;;;;;;5032342;28;20041;-57
2022/04/08 06:50:39;;;;;;;5.97;2.53;;;6.60;99.90;;;;;;5031461;28;20062;-57
2022/04/08 06:53:05;;;;;;;7.45;2.67;;;6.60;99.90;;;;;;5032929;28;20061;-57
2022/04/08 06:55:32;;;;;;;4.82;2.78;;;6.50;99.90;;;;;;5033951;28;20036;-57
2022/04/08 06:57:59;;;;;;;7.72;2.65;;;6.50;99.90;;;;;;5032073;28;20029;-57
2022/04/08 07:00:25;;;;;;;7.60;2.72;;;6.50;99.90;;;;;;5033579;28;20025;-57
2022/04/08 07:02:51;;;;;;;8.40;2.65;;;6.50;99.90;;;;;;5033192;28;20441;-57
2022/04/08 07:05:16;;;;;;;6.65;3.17;;;6.50;99.90;;;;;;5033741;28;20292;-57
2022/04/08 07:07:45;;;;;;;4.57;2.90;;;6.40;99.90;;;;;;5032402;28;20108;-57
2022/04/08 07:10:11;;;;;;;6.72;2.88;;;6.40;99.90;;;;;;5033173;28;20025;-57
2022/04/08 07:12:37;;;;;;;8.02;3.20;;;6.40;99.90;;;;;;5059730;28;20363;-57
2022/04/08 07:15:04;;;;;;;11.65;3.13;;;6.50;99.90;;;;;;5045575;28;20034;-57
2022/04/08 07:17:35;;;;;;;8.63;2.90;;;6.60;99.90;;;;;;5044028;28;20035;-57
2022/04/08 07:20:01;;;;;;;5.68;2.60;;;6.70;99.90;;;;;;5047027;28;20423;-57
2022/04/08 07:22:26;;;;;;;11.30;3.25;;;6.70;99.90;;;;;;5037115;28;20076;-58
2022/04/08 07:24:54;;;;;;;12.68;3.42;;;6.90;99.90;;;;;;5028304;28;20049;-57
2022/04/08 07:27:21;;;;;;;10.32;3.72;;;6.90;99.90;;;;;;5031323;28;20056;-57
2022/04/08 07:29:48;;;;;;;9.32;2.90;;;6.90;99.90;;;;;;5027437;28;20030;-58
2022/04/08 07:32:20;;;;;;;11.20;4.07;;;7.00;99.90;;;;;;5036870;28;20446;-58
2022/04/08 07:34:50;;;;;;;16.75;4.03;;;6.90;99.90;;;;;;5057862;28;20108;-58
2022/04/08 07:37:27;;;;;;;12.30;3.70;;;6.80;99.90;;;;;;5032204;28;20072;-58
2022/04/08 07:39:53;;;;;;;8.82;3.65;;;6.80;99.90;;;;;;5032504;28;20026;-58
2022/04/08 07:42:19;;;;;;;8.95;3.30;;;6.90;99.90;;;;;;5033183;28;20025;-57
2022/04/08 07:44:44;;;;;;;10.30;4.13;;;6.90;99.90;;;;;;5034158;28;20505;-57
2022/04/08 07:47:10;;;;;;;9.27;3.58;;;7.00;99.90;;;;;;5033849;28;20030;-57
2022/04/08 07:49:36;;;;;;;12.80;4.13;;;6.90;99.90;;;;;;5064562;28;20022;-57
2022/04/08 07:52:02;;;;;;;9.68;3.83;;;7.00;99.90;;;;;;5032197;28;20049;-57
2022/04/08 07:54:28;;;;;;;7.93;3.45;;;7.10;99.90;;;;;;5033192;28;20115;-57
2022/04/08 07:56:54;;;;;;;12.00;3.72;;;7.10;99.90;;;;;;5033255;28;20033;-57
2022/04/08 07:59:19;;;;;;;15.30;4.60;;;7.10;99.90;;;;;;5032501;28;20510;-57
2022/04/08 08:01:46;;;;;;;11.63;3.80;;;7.20;99.90;;;;;;5032320;28;20052;-57
2022/04/08 08:04:12;;;;;;;11.20;3.67;;;7.30;99.90;;;;;;5032673;28;20029;-58
2022/04/08 08:06:37;;;;;;;10.30;4.30;;;7.50;99.90;;;;;;5031979;28;20525;-57
2022/04/08 08:09:03;;;;;;;12.52;4.20;;;7.60;99.90;;;;;;5032700;28;20097;-57
2022/04/08 08:11:29;;;;;;;10.20;4.07;;;7.50;99.90;;;;;;5031968;28;20018;-57
2022/04/08 08:13:55;;;;;;;8.48;3.80;;;7.70;99.90;;;;;;5031860;28;20030;-57
2022/04/08 08:16:21;;;;;;;8.77;3.90;;;7.70;99.90;;;;;;5035493;28;20056;-57
2022/04/08 08:18:49;;;;;;;15.25;4.95;;;7.70;99.90;;;;;;5036045;28;20029;-57
2022/04/08 08:21:14;;;;;;;12.02;4.55;;;7.60;99.90;;;;;;5037778;28;20045;-58
2022/04/08 08:23:40;;;;;;;12.25;5.40;;;7.60;99.90;;;;;;5054542;28;20048;-57
2022/04/08 08:26:06;;;;;;;9.13;4.30;;;7.60;99.90;;;;;;5056056;28;20028;-57
2022/04/08 08:28:31;;;;;;;10.15;4.30;;;7.60;99.90;;;;;;5038436;28;20115;-57
2022/04/08 08:30:57;;;;;;;12.43;4.15;;;7.60;99.90;;;;;;5056286;28;20051;-57
2022/04/08 08:33:22;;;;;;;7.00;3.55;;;7.50;99.90;;;;;;5056590;28;20538;-58
2022/04/08 08:35:48;;;;;;;17.30;4.97;;;7.60;99.90;;;;;;5055151;28;20031;-57
2022/04/08 08:38:15;;;;;;;9.85;4.38;;;7.60;99.90;;;;;;5055134;28;20052;-57
2022/04/08 08:40:43;;;;;;;10.05;3.97;;;7.50;99.90;;;;;;5054779;28;20025;-57
2022/04/08 08:43:09;;;;;;;9.25;3.92;;;7.50;99.90;;;;;;5055401;28;20087;-57
2022/04/08 08:45:36;;;;;;;9.90;3.60;;;7.50;99.90;;;;;;5053931;28;20390;-58
2022/04/08 08:48:04;;;;;;;11.88;3.47;;;7.60;99.90;;;;;;5044176;28;20025;-57
2022/04/08 08:50:30;;;;;;;9.30;3.42;;;7.70;99.90;;;;;;5067469;28;20402;-57
2022/04/08 08:52:57;;;;;;;7.25;3.20;;;7.70;99.90;;;;;;5035302;28;20083;-58
2022/04/08 08:55:24;;;;;;;11.20;3.22;;;7.70;99.90;;;;;;5035149;28;20025;-58
2022/04/08 08:57:51;;;;;;;10.52;3.40;;;7.70;99.90;;;;;;5040089;28;20018;-58
2022/04/08 09:00:19;;;;;;;8.32;3.50;;;7.60;99.90;;;;;;5035056;28;20021;-58
2022/04/08 09:02:49;;;;;;;13.30;3.30;;;7.60;99.90;;;;;;5035384;28;20033;-58
2022/04/08 09:05:25;;;;;;;13.23;3.00;;;7.60;99.90;;;;;;5037985;28;20033;-58
2022/04/08 09:08:05;;;;;;;10.90;2.88;;;7.60;99.90;;;;;;5053243;28;20049;-58
2022/04/08 09:10:43;;;;;;;10.50;2.80;;;7.60;99.90;;;;;;5054062;28;20052;-58
2022/04/08 09:13:10;;;;;;;11.20;3.30;;;7.70;99.90;;;;;;5054091;28;20028;-57
2022/04/08 09:15:39;;;;;;;8.75;3.38;;;7.60;99.90;;;;;;5054060;28;20032;-57
2022/04/08 09:18:14;;;;;;;8.95;2.90;;;7.60;99.90;;;;;;5052220;28;20116;-58
2022/04/08 09:20:43;;;;;;;14.80;3.67;;;7.60;99.90;;;;;;5054872;28;20039;-58
2022/04/08 09:23:10;;;;;;;10.80;3.40;;;7.60;99.90;;;;;;5054449;28;20060;-57
2022/04/08 09:25:37;;;;;;;13.27;3.80;;;7.70;99.90;;;;;;5055333;28;20027;-58
2022/04/08 09:28:11;;;;;;;13.30;3.70;;;7.70;99.90;;;;;;5054066;28;20033;-58
2022/04/08 09:30:38;;;;;;;10.48;3.78;;;7.80;99.90;;;;;;5053823;28;20043;-58
2022/04/08 09:33:19;;;;;;;16.40;4.15;;;7.80;99.90;;;;;;5054086;28;20494;-57
2022/04/08 09:35:45;;;;;;;9.15;3.17;;;7.80;99.90;;;;;;5069908;28;20088;-57
2022/04/08 09:38:16;;;;;;;11.60;3.25;;;7.80;99.90;;;;;;5051336;28;20050;-57
2022/04/08 09:40:42;;;;;;;12.15;3.25;;;7.80;99.90;;;;;;5043150;28;20065;-57
2022/04/08 09:43:08;;;;;;;18.77;3.60;;;7.90;99.90;;;;;;5035180;28;20545;-57
2022/04/08 09:45:34;;;;;;;8.85;2.83;;;8.00;99.90;;;;;;5052242;28;20021;-57
2022/04/08 09:48:01;;;;;;;11.05;4.07;;;8.10;99.90;;;;;;5051945;28;20021;-57
2022/04/08 09:50:28;;;;;;;16.33;3.78;;;8.00;99.90;;;;;;5050992;28;20489;-57
2022/04/08 09:52:54;;;;;;;6.88;3.17;;;8.00;99.90;;;;;;5052573;28;20060;-57
2022/04/08 09:55:21;;;;;;;7.28;2.75;;;8.00;99.90;;;;;;5053862;28;20541;-57
2022/04/08 09:57:50;;;;;;;15.60;3.20;;;8.10;99.90;;;;;;5063399;28;20084;-57
2022/04/08 10:00:16;;;;;;;6.72;3.08;;;8.00;99.90;;;;;;5064257;28;20021;-57
2022/04/08 10:02:45;;;;;;;8.35;3.10;;;7.90;99.90;;;;;;5053699;28;20103;-57
2022/04/08 10:05:11;;;;;;;13.40;3.28;;;7.80;99.90;;;;;;5052875;28;20031;-57
2022/04/08 10:07:39;;;;;;;10.27;3.15;;;7.90;99.90;;;;;;5051985;28;20104;-57
2022/04/08 10:10:21;;;;;;;10.15;3.92;;;8.00;99.90;;;;;;5051970;28;20033;-57
2022/04/08 10:13:21;;;;;;;12.90;3.83;;;8.00;99.90;;;;;;5051721;28;20104;-57
2022/04/08 10:16:19;;;;;;;8.10;3.25;;;8.10;99.90;;;;;;5051975;28;20567;-57
2022/04/08 10:18:46;;;;;;;12.65;3.38;;;8.20;99.90;;;;;;5051588;28;20025;-57
2022/04/08 10:21:13;;;;;;;12.35;3.30;;;8.30;99.90;;;;;;5050605;28;20028;-57
2022/04/08 10:23:49;;;;;;;12.35;3.00;;;8.30;99.90;;;;;;5051860;28;20029;-57
2022/04/08 10:26:25;;;;;;;9.52;3.05;;;8.30;99.90;;;;;;5050441;28;20029;-57
2022/04/08 10:28:51;;;;;;;11.57;3.42;;;8.50;99.90;;;;;;5051011;28;20040;-57
2022/04/08 10:31:24;;;;;;;11.48;3.60;;;8.60;99.90;;;;;;5054442;28;20032;-61
2022/04/08 10:33:55;;;;;;;7.05;3.00;;;8.50;99.90;;;;;;5054474;28;20036;-57
2022/04/08 10:36:43;;;;;;;11.63;3.10;;;8.40;99.90;;;;;;5051791;28;20356;-57
2022/04/08 10:39:15;;;;;;;11.35;2.97;;;8.50;99.90;;;;;;5049619;28;20031;-57
2022/04/08 10:41:51;;;;;;;7.72;3.08;;;8.40;99.90;;;;;;5051274;28;20594;-56
2022/04/08 10:44:31;;;;;;;12.88;2.65;;;8.40;99.90;;;;;;5051930;28;20040;-56
2022/04/08 10:46:59;;;;;;;9.27;2.60;;;8.40;99.90;;;;;;5050399;28;20025;-57
2022/04/08 10:49:25;;;;;;;9.77;3.58;;;8.30;99.90;;;;;;5052206;28;20040;-56
2022/04/08 10:51:50;;;;;;;9.95;2.88;;;8.40;99.90;;;;;;5051994;28;20025;-56
2022/04/08 10:54:17;;;;;;;9.40;2.63;;;8.40;99.90;;;;;;5051869;28;20021;-56
2022/04/08 10:56:43;;;;;;;14.25;3.47;;;8.50;99.90;;;;;;5050910;28;20025;-56
2022/04/08 10:59:09;;;;;;;6.63;3.17;;;8.60;99.90;;;;;;5051286;28;20040;-56
2022/04/08 11:01:48;;;;;;;7.60;2.60;;;8.70;99.90;;;;;;5049987;28;20031;-56
2022/04/08 11:04:19;;;;;;;10.60;3.22;;;8.70;99.90;;;;;;5050968;28;20013;-56
2022/04/08 11:06:45;;;;;;;8.68;3.40;;;8.70;99.90;;;;;;5050067;28;20423;-56
2022/04/08 11:09:14;;;;;;;5.93;3.17;;;8.80;99.90;;;;;;5051870;28;20128;-57
2022/04/08 11:11:41;;;;;;;8.75;3.38;;;8.90;99.90;;;;;;5051407;28;20425;-57
2022/04/08 11:14:08;;;;;;;7.55;3.25;;;8.80;99.90;;;;;;5062143;28;20112;-57
2022/04/08 11:16:37;;;;;;;8.80;3.53;;;8.70;99.90;;;;;;5055721;28;20029;-57
2022/04/08 11:19:11;;;;;;;8.57;3.67;;;8.70;99.90;;;;;;5052719;28;20021;-57
2022/04/08 11:21:38;;;;;;;6.45;3.08;;;8.80;99.90;;;;;;5050408;28;20045;-57
2022/04/08 11:24:13;;;;;;;5.72;2.85;;;8.80;99.90;;;;;;5051024;28;20500;-56
2022/04/08 11:26:50;;;;;;;7.18;2.83;;;8.90;99.90;;;;;;5050959;28;20021;-56
2022/04/08 11:29:21;;;;;;;7.03;2.75;;;8.80;99.90;;;;;;5050521;28;20036;-56
2022/04/08 11:31:49;;;;;;;4.97;2.53;;;8.80;99.90;;;;;;5050246;28;20533;-57
2022/04/08 11:34:16;;;;;;;7.15;2.85;;;8.90;99.90;;;;;;5050548;28;20071;-57
2022/04/08 11:36:42;;;;;;;7.10;2.67;;;8.90;99.90;;;;;;5049686;28;20051;-57
2022/04/08 11:39:09;;;;;;;5.97;2.83;;;8.90;99.90;;;;;;5049429;28;20033;-56
2022/04/08 11:41:37;;;;;;;7.82;2.78;;;9.00;99.90;;;;;;5032284;28;20055;-57
2022/04/08 11:44:04;;;;;;;6.85;3.05;;;9.40;99.90;;;;;;5047878;28;20025;-57
2022/04/08 11:46:30;;;;;;;9.20;3.22;;;9.70;99.90;;;;;;5049821;28;20052;-56
2022/04/08 11:48:56;;;;;;;11.07;2.90;;;9.90;99.90;;;;;;5049539;28;20406;-56
2022/04/08 11:51:22;;;;;;;6.47;2.55;;;10.10;99.90;;;;;;5053590;28;20025;-56
2022/04/08 11:53:52;;;;;;;5.32;2.08;;;9.90;99.90;;;;;;5053153;28;20052;-56
2022/04/08 11:56:25;;;;;;;14.95;2.78;;;9.90;99.90;;;;;;5053423;28;20090;-56
2022/04/08 11:59:07;;;;;;;8.10;2.50;;;10.10;99.90;;;;;;5054400;28;20079;-56
2022/04/08 12:01:41;;;;;;;30.20;4.22;;;10.30;99.90;;;;;;5053966;28;20486;-57
2022/04/08 12:04:09;;;;;;;7.82;1.90;;;10.40;99.90;;;;;;5052812;28;20132;-56
2022/04/08 12:06:50;;;;;;;7.32;2.60;;;10.60;99.90;;;;;;5053226;28;20029;-56
2022/04/08 12:09:17;;;;;;;5.70;2.15;;;10.80;99.90;;;;;;5054101;28;20105;-56
2022/04/08 12:11:45;;;;;;;11.70;2.28;;;10.40;99.90;;;;;;5053879;28;20107;-56
2022/04/08 12:14:11;;;;;;;5.80;1.88;;;10.40;99.90;;;;;;5054302;28;20025;-56
2022/04/08 12:16:38;;;;;;;10.63;2.70;;;10.50;99.90;;;;;;5053470;28;20025;-57
2022/04/08 12:19:06;;;;;;;9.27;2.22;;;10.50;99.90;;;;;;5052739;28;20028;-58
2022/04/08 12:21:32;;;;;;;7.43;1.73;;;10.70;99.90;;;;;;5052840;28;20099;-57
2022/04/08 12:24:01;;;;;;;7.25;1.73;;;11.00;99.90;;;;;;5052781;28;20577;-57
2022/04/08 12:26:35;;;;;;;4.40;1.95;;;10.90;99.90;;;;;;5053263;28;20017;-57
2022/04/08 12:29:14;;;;;;;7.90;2.72;;;10.50;99.90;;;;;;5053961;28;20055;-57
2022/04/08 12:32:12;;;;;;;8.45;2.47;;;10.70;99.90;;;;;;5053870;28;20428;-57
2022/04/08 12:34:37;;;;;;;6.55;2.58;;;10.90;99.90;;;;;;5053661;28;20076;-57
2022/04/08 12:37:03;;;;;;;6.80;2.30;;;11.10;99.90;;;;;;5053822;28;20029;-57
2022/04/08 12:39:29;;;;;;;7.35;2.60;;;10.90;99.90;;;;;;5052900;28;20021;-57
2022/04/08 12:41:59;;;;;;;5.88;2.10;;;11.00;99.90;;;;;;5052892;28;20071;-57
2022/04/08 12:44:25;;;;;;;6.45;2.30;;;10.80;99.90;;;;;;5053279;28;20021;-57
2022/04/08 12:46:51;;;;;;;10.32;2.78;;;10.70;99.90;;;;;;5052545;28;20025;-57
2022/04/08 12:49:17;;;;;;;7.22;2.22;;;10.80;99.90;;;;;;5052299;28;20025;-57
2022/04/08 12:51:43;;;;;;;7.45;1.75;;;11.20;99.90;;;;;;5051929;28;20021;-58
2022/04/08 12:54:09;;;;;;;3.90;1.80;;;11.30;99.90;;;;;;5052463;28;20035;-57